Squires, Missouri
Current Conditions -  °F | °C
As of 1:53 PM on Friday 24 Oct 2014 (Local Time) from KBPK Reporting Station
Few Clouds Few Clouds  
Wind Chill: 71°   Ceiling: Unl
Heat Index: 71°   Visibility: 9mi
Dew Point: 57°   Wind: 3mph
Humidity: 61%   Direction: NA
Pressure: 30.1"   Gusts: NA
Location:  36.85°N, 92.63°W
Report Text: KBPK 241853Z AUTO VRB03KT 9SM FEW045 22/14 A3010 RMK AO2 SLP187 T02170139
Loading
Personal Weather Stations






























Interactive Weather Map
Tropical Storm Tracking
New forecast layout! Learn more

10-Day Weather Forecast

Advertisements
Track Severe Weather on mobile